sensor_id;sensor_type;location;lat;lon;timestamp;temperature;humidity
5938;DHT22;2994;51.220;4.412;2023-08-06T00:01:25;18.82;78.58
5938;DHT22;2994;51.220;4.412;2023-08-06T00:03:51;18.82;78.61
5938;DHT22;2994;51.220;4.412;2023-08-06T00:06:16;18.80;78.63
5938;DHT22;2994;51.220;4.412;2023-08-06T00:08:42;18.81;78.66
5938;DHT22;2994;51.220;4.412;2023-08-06T00:11:07;18.81;78.69
5938;DHT22;2994;51.220;4.412;2023-08-06T00:13:33;18.80;78.72
5938;DHT22;2994;51.220;4.412;2023-08-06T00:16:13;18.81;78.75
5938;DHT22;2994;51.220;4.412;2023-08-06T00:18:39;18.79;78.68
5938;DHT22;2994;51.220;4.412;2023-08-06T00:21:05;18.79;78.65
5938;DHT22;2994;51.220;4.412;2023-08-06T00:23:30;18.79;78.73
5938;DHT22;2994;51.220;4.412;2023-08-06T00:25:56;18.81;78.76
5938;DHT22;2994;51.220;4.412;2023-08-06T00:28:21;18.80;78.77
5938;DHT22;2994;51.220;4.412;2023-08-06T00:30:55;18.79;78.84
5938;DHT22;2994;51.220;4.412;2023-08-06T00:33:21;18.78;78.81
5938;DHT22;2994;51.220;4.412;2023-08-06T00:35:47;18.79;78.92
5938;DHT22;2994;51.220;4.412;2023-08-06T00:38:12;18.77;79.04
5938;DHT22;2994;51.220;4.412;2023-08-06T00:40:38;18.76;79.12
5938;DHT22;2994;51.220;4.412;2023-08-06T00:43:03;18.76;79.16
5938;DHT22;2994;51.220;4.412;2023-08-06T00:45:29;18.77;79.20
5938;DHT22;2994;51.220;4.412;2023-08-06T00:47:55;18.77;79.08
5938;DHT22;2994;51.220;4.412;2023-08-06T00:50:21;18.77;79.17
5938;DHT22;2994;51.220;4.412;2023-08-06T00:52:48;18.77;79.24
5938;DHT22;2994;51.220;4.412;2023-08-06T00:55:15;18.77;79.32
5938;DHT22;2994;51.220;4.412;2023-08-06T00:57:41;18.78;79.24
5938;DHT22;2994;51.220;4.412;2023-08-06T01:00:07;18.78;79.35
5938;DHT22;2994;51.220;4.412;2023-08-06T01:02:32;18.78;79.33
5938;DHT22;2994;51.220;4.412;2023-08-06T01:04:58;18.77;79.25
5938;DHT22;2994;51.220;4.412;2023-08-06T01:07:46;18.78;79.32
5938;DHT22;2994;51.220;4.412;2023-08-06T01:10:25;18.78;79.24
5938;DHT22;2994;51.220;4.412;2023-08-06T01:15:49;18.78;79.21
5938;DHT22;2994;51.220;4.412;2023-08-06T01:18:15;18.78;79.02
5938;DHT22;2994;51.220;4.412;2023-08-06T01:20:41;18.80;79.28
5938;DHT22;2994;51.220;4.412;2023-08-06T01:23:07;18.80;79.26
5938;DHT22;2994;51.220;4.412;2023-08-06T01:26:19;18.82;79.17
5938;DHT22;2994;51.220;4.412;2023-08-06T01:31:30;18.82;79.04
5938;DHT22;2994;51.220;4.412;2023-08-06T01:33:58;18.82;78.99
5938;DHT22;2994;51.220;4.412;2023-08-06T01:36:25;18.83;78.93
5938;DHT22;2994;51.220;4.412;2023-08-06T01:38:54;18.81;78.99
5938;DHT22;2994;51.220;4.412;2023-08-06T01:41:20;18.83;79.06
5938;DHT22;2994;51.220;4.412;2023-08-06T01:43:45;18.81;79.06
5938;DHT22;2994;51.220;4.412;2023-08-06T01:46:11;18.81;79.07
5938;DHT22;2994;51.220;4.412;2023-08-06T01:48:36;18.82;78.99
5938;DHT22;2994;51.220;4.412;2023-08-06T01:51:05;18.81;78.98
5938;DHT22;2994;51.220;4.412;2023-08-06T01:53:31;18.80;78.94
5938;DHT22;2994;51.220;4.412;2023-08-06T01:55:57;18.80;79.01
5938;DHT22;2994;51.220;4.412;2023-08-06T01:58:23;18.79;79.00
5938;DHT22;2994;51.220;4.412;2023-08-06T02:00:48;18.81;79.02
5938;DHT22;2994;51.220;4.412;2023-08-06T02:03:14;18.80;78.98
5938;DHT22;2994;51.220;4.412;2023-08-06T02:05:40;18.79;78.94
5938;DHT22;2994;51.220;4.412;2023-08-06T02:08:06;18.79;78.88
5938;DHT22;2994;51.220;4.412;2023-08-06T02:10:31;18.78;78.90
5938;DHT22;2994;51.220;4.412;2023-08-06T02:12:57;18.79;79.11
5938;DHT22;2994;51.220;4.412;2023-08-06T02:15:22;18.77;79.12
5938;DHT22;2994;51.220;4.412;2023-08-06T02:17:48;18.77;79.16
5938;DHT22;2994;51.220;4.412;2023-08-06T02:20:13;18.76;79.16
5938;DHT22;2994;51.220;4.412;2023-08-06T02:22:38;18.74;79.25
5938;DHT22;2994;51.220;4.412;2023-08-06T02:25:04;18.74;79.66
5938;DHT22;2994;51.220;4.412;2023-08-06T02:27:30;18.74;79.85
5938;DHT22;2994;51.220;4.412;2023-08-06T02:29:55;18.73;79.82
5938;DHT22;2994;51.220;4.412;2023-08-06T02:32:20;18.73;79.69
5938;DHT22;2994;51.220;4.412;2023-08-06T02:34:46;18.71;79.56
5938;DHT22;2994;51.220;4.412;2023-08-06T02:37:11;18.71;79.56
5938;DHT22;2994;51.220;4.412;2023-08-06T02:39:37;18.65;79.95
5938;DHT22;2994;51.220;4.412;2023-08-06T02:42:08;18.63;80.30
5938;DHT22;2994;51.220;4.412;2023-08-06T02:44:34;18.65;80.22
5938;DHT22;2994;51.220;4.412;2023-08-06T02:47:00;18.62;80.37
5938;DHT22;2994;51.220;4.412;2023-08-06T02:49:25;18.58;80.51
5938;DHT22;2994;51.220;4.412;2023-08-06T02:51:51;18.58;80.54
5938;DHT22;2994;51.220;4.412;2023-08-06T02:54:18;18.56;80.69
5938;DHT22;2994;51.220;4.412;2023-08-06T02:56:44;18.50;81.30
5938;DHT22;2994;51.220;4.412;2023-08-06T02:59:13;18.51;81.27
5938;DHT22;2994;51.220;4.412;2023-08-06T03:01:38;18.53;81.24
5938;DHT22;2994;51.220;4.412;2023-08-06T03:04:05;18.52;81.14
5938;DHT22;2994;51.220;4.412;2023-08-06T03:06:30;18.55;80.98
5938;DHT22;2994;51.220;4.412;2023-08-06T03:08:56;18.58;80.77
5938;DHT22;2994;51.220;4.412;2023-08-06T03:11:21;18.61;80.68
5938;DHT22;2994;51.220;4.412;2023-08-06T03:13:47;18.64;80.58
5938;DHT22;2994;51.220;4.412;2023-08-06T03:16:13;18.63;80.47
5938;DHT22;2994;51.220;4.412;2023-08-06T03:18:38;18.65;80.42
5938;DHT22;2994;51.220;4.412;2023-08-06T03:21:04;18.66;80.34
5938;DHT22;2994;51.220;4.412;2023-08-06T03:23:29;18.66;80.27
5938;DHT22;2994;51.220;4.412;2023-08-06T03:25:55;18.69;80.24
5938;DHT22;2994;51.220;4.412;2023-08-06T03:28:20;18.67;80.22
5938;DHT22;2994;51.220;4.412;2023-08-06T03:30:47;18.67;80.09
5938;DHT22;2994;51.220;4.412;2023-08-06T03:33:13;18.67;79.95
5938;DHT22;2994;51.220;4.412;2023-08-06T03:35:39;18.65;80.03
5938;DHT22;2994;51.220;4.412;2023-08-06T03:38:04;18.63;80.34
5938;DHT22;2994;51.220;4.412;2023-08-06T03:40:30;18.61;80.45
5938;DHT22;2994;51.220;4.412;2023-08-06T03:42:55;18.61;80.39
5938;DHT22;2994;51.220;4.412;2023-08-06T03:45:20;18.58;80.32
5938;DHT22;2994;51.220;4.412;2023-08-06T03:47:46;18.55;80.36
5938;DHT22;2994;51.220;4.412;2023-08-06T03:50:11;18.53;80.31
5938;DHT22;2994;51.220;4.412;2023-08-06T03:52:37;18.54;80.34
5938;DHT22;2994;51.220;4.412;2023-08-06T03:55:02;18.50;80.33
5938;DHT22;2994;51.220;4.412;2023-08-06T03:57:28;18.44;80.48
5938;DHT22;2994;51.220;4.412;2023-08-06T03:59:53;18.42;80.48
5938;DHT22;2994;51.220;4.412;2023-08-06T04:02:19;18.34;80.61
5938;DHT22;2994;51.220;4.412;2023-08-06T04:04:44;18.33;80.71
5938;DHT22;2994;51.220;4.412;2023-08-06T04:07:09;18.36;80.71
5938;DHT22;2994;51.220;4.412;2023-08-06T04:09:51;18.37;80.50
5938;DHT22;2994;51.220;4.412;2023-08-06T04:12:17;18.29;80.70
5938;DHT22;2994;51.220;4.412;2023-08-06T04:14:42;17.98;82.55
5938;DHT22;2994;51.220;4.412;2023-08-06T04:17:08;18.19;81.17
5938;DHT22;2994;51.220;4.412;2023-08-06T04:19:33;18.06;81.05
5938;DHT22;2994;51.220;4.412;2023-08-06T04:21:59;17.90;82.06
5938;DHT22;2994;51.220;4.412;2023-08-06T04:24:24;17.98;81.59
5938;DHT22;2994;51.220;4.412;2023-08-06T04:26:49;17.90;82.20
5938;DHT22;2994;51.220;4.412;2023-08-06T04:29:15;17.81;82.78
5938;DHT22;2994;51.220;4.412;2023-08-06T04:31:40;17.87;81.78
5938;DHT22;2994;51.220;4.412;2023-08-06T04:34:06;17.76;80.43
5938;DHT22;2994;51.220;4.412;2023-08-06T04:36:33;17.65;79.25
5938;DHT22;2994;51.220;4.412;2023-08-06T04:38:58;17.48;79.75
5938;DHT22;2994;51.220;4.412;2023-08-06T04:41:23;17.43;79.39
5938;DHT22;2994;51.220;4.412;2023-08-06T04:43:49;17.30;80.08
5938;DHT22;2994;51.220;4.412;2023-08-06T04:46:14;17.35;80.36
5938;DHT22;2994;51.220;4.412;2023-08-06T04:48:40;17.40;80.33
5938;DHT22;2994;51.220;4.412;2023-08-06T04:51:05;17.45;80.39
5938;DHT22;2994;51.220;4.412;2023-08-06T04:53:31;17.50;80.74
5938;DHT22;2994;51.220;4.412;2023-08-06T04:55:56;17.52;81.25
5938;DHT22;2994;51.220;4.412;2023-08-06T04:58:21;17.30;82.75
5938;DHT22;2994;51.220;4.412;2023-08-06T05:00:47;17.17;83.32
5938;DHT22;2994;51.220;4.412;2023-08-06T05:03:12;17.20;83.12
5938;DHT22;2994;51.220;4.412;2023-08-06T05:05:40;17.22;83.16
5938;DHT22;2994;51.220;4.412;2023-08-06T05:08:06;17.19;83.44
5938;DHT22;2994;51.220;4.412;2023-08-06T05:10:31;17.11;83.30
5938;DHT22;2994;51.220;4.412;2023-08-06T05:12:57;16.99;83.44
5938;DHT22;2994;51.220;4.412;2023-08-06T05:15:26;16.96;83.71
5938;DHT22;2994;51.220;4.412;2023-08-06T05:17:54;17.08;83.32
5938;DHT22;2994;51.220;4.412;2023-08-06T05:20:20;17.18;82.97
5938;DHT22;2994;51.220;4.412;2023-08-06T05:22:46;17.17;82.88
5938;DHT22;2994;51.220;4.412;2023-08-06T05:25:13;17.17;83.20
5938;DHT22;2994;51.220;4.412;2023-08-06T05:27:39;17.21;83.29
5938;DHT22;2994;51.220;4.412;2023-08-06T05:30:05;17.24;82.69
5938;DHT22;2994;51.220;4.412;2023-08-06T05:32:31;17.11;82.75
5938;DHT22;2994;51.220;4.412;2023-08-06T05:34:56;17.11;83.16
5938;DHT22;2994;51.220;4.412;2023-08-06T05:37:22;17.11;83.16
5938;DHT22;2994;51.220;4.412;2023-08-06T05:39:47;17.19;82.75
5938;DHT22;2994;51.220;4.412;2023-08-06T05:42:13;17.18;81.85
5938;DHT22;2994;51.220;4.412;2023-08-06T05:44:41;17.29;81.84
5938;DHT22;2994;51.220;4.412;2023-08-06T05:47:07;17.26;82.22
5938;DHT22;2994;51.220;4.412;2023-08-06T05:49:35;17.24;81.85
5938;DHT22;2994;51.220;4.412;2023-08-06T05:52:00;17.31;81.19
5938;DHT22;2994;51.220;4.412;2023-08-06T05:54:27;17.48;80.24
5938;DHT22;2994;51.220;4.412;2023-08-06T05:56:53;17.48;79.66
5938;DHT22;2994;51.220;4.412;2023-08-06T05:59:18;17.45;80.21
5938;DHT22;2994;51.220;4.412;2023-08-06T06:01:44;17.46;80.09
5938;DHT22;2994;51.220;4.412;2023-08-06T06:04:09;17.53;79.84
5938;DHT22;2994;51.220;4.412;2023-08-06T06:06:35;17.55;80.02
5938;DHT22;2994;51.220;4.412;2023-08-06T06:09:00;17.45;79.98
5938;DHT22;2994;51.220;4.412;2023-08-06T06:11:26;17.51;79.82
5938;DHT22;2994;51.220;4.412;2023-08-06T06:13:51;17.45;79.56
5938;DHT22;2994;51.220;4.412;2023-08-06T06:16:17;17.62;78.47
5938;DHT22;2994;51.220;4.412;2023-08-06T06:18:43;17.46;78.65
5938;DHT22;2994;51.220;4.412;2023-08-06T06:21:09;17.51;78.40
5938;DHT22;2994;51.220;4.412;2023-08-06T06:23:35;17.59;78.33
5938;DHT22;2994;51.220;4.412;2023-08-06T06:26:00;17.58;77.26
5938;DHT22;2994;51.220;4.412;2023-08-06T06:28:26;17.68;76.83
5938;DHT22;2994;51.220;4.412;2023-08-06T06:30:53;17.73;76.76
5938;DHT22;2994;51.220;4.412;2023-08-06T06:33:19;17.72;77.26
5938;DHT22;2994;51.220;4.412;2023-08-06T06:35:44;17.60;75.89
5938;DHT22;2994;51.220;4.412;2023-08-06T06:38:09;17.69;75.68
5938;DHT22;2994;51.220;4.412;2023-08-06T06:40:35;17.74;76.66
5938;DHT22;2994;51.220;4.412;2023-08-06T06:43:00;17.80;76.61
5938;DHT22;2994;51.220;4.412;2023-08-06T06:45:26;17.73;76.01
5938;DHT22;2994;51.220;4.412;2023-08-06T06:47:51;17.54;76.95
5938;DHT22;2994;51.220;4.412;2023-08-06T06:50:17;17.60;76.08
5938;DHT22;2994;51.220;4.412;2023-08-06T06:52:42;17.70;76.00
5938;DHT22;2994;51.220;4.412;2023-08-06T06:55:08;17.77;75.45
5938;DHT22;2994;51.220;4.412;2023-08-06T06:57:33;17.75;75.86
5938;DHT22;2994;51.220;4.412;2023-08-06T06:59:59;17.80;75.64
5938;DHT22;2994;51.220;4.412;2023-08-06T07:02:24;17.82;75.31
5938;DHT22;2994;51.220;4.412;2023-08-06T07:04:50;17.78;74.75
5938;DHT22;2994;51.220;4.412;2023-08-06T07:07:15;17.85;75.34
5938;DHT22;2994;51.220;4.412;2023-08-06T07:09:41;17.85;74.70
5938;DHT22;2994;51.220;4.412;2023-08-06T07:12:07;17.66;74.82
5938;DHT22;2994;51.220;4.412;2023-08-06T07:14:32;17.77;74.40
5938;DHT22;2994;51.220;4.412;2023-08-06T07:16:58;17.84;73.87
5938;DHT22;2994;51.220;4.412;2023-08-06T07:19:23;17.85;74.12
5938;DHT22;2994;51.220;4.412;2023-08-06T07:21:48;17.73;74.64
5938;DHT22;2994;51.220;4.412;2023-08-06T07:24:14;17.63;74.63
5938;DHT22;2994;51.220;4.412;2023-08-06T07:26:39;17.51;75.24
5938;DHT22;2994;51.220;4.412;2023-08-06T07:29:05;17.59;75.81
5938;DHT22;2994;51.220;4.412;2023-08-06T07:31:30;17.69;76.48
5938;DHT22;2994;51.220;4.412;2023-08-06T07:33:56;17.70;76.35
5938;DHT22;2994;51.220;4.412;2023-08-06T07:36:21;17.68;76.84
5938;DHT22;2994;51.220;4.412;2023-08-06T07:38:47;17.60;77.05
5938;DHT22;2994;51.220;4.412;2023-08-06T07:41:16;17.58;76.37
5938;DHT22;2994;51.220;4.412;2023-08-06T07:43:42;17.43;76.53
5938;DHT22;2994;51.220;4.412;2023-08-06T07:46:07;17.53;76.09
5938;DHT22;2994;51.220;4.412;2023-08-06T07:48:33;17.45;76.24
5938;DHT22;2994;51.220;4.412;2023-08-06T07:50:58;17.35;76.32
5938;DHT22;2994;51.220;4.412;2023-08-06T07:53:25;17.38;76.01
5938;DHT22;2994;51.220;4.412;2023-08-06T07:55:54;17.55;75.57
5938;DHT22;2994;51.220;4.412;2023-08-06T07:58:20;17.52;76.17
5938;DHT22;2994;51.220;4.412;2023-08-06T08:00:46;17.72;75.59
5938;DHT22;2994;51.220;4.412;2023-08-06T08:03:13;17.76;74.80
5938;DHT22;2994;51.220;4.412;2023-08-06T08:05:40;17.54;75.62
5938;DHT22;2994;51.220;4.412;2023-08-06T08:08:06;17.25;76.60
5938;DHT22;2994;51.220;4.412;2023-08-06T08:10:35;17.37;76.71
5938;DHT22;2994;51.220;4.412;2023-08-06T08:13:05;17.59;75.75
5938;DHT22;2994;51.220;4.412;2023-08-06T08:15:32;17.52;76.37
5938;DHT22;2994;51.220;4.412;2023-08-06T08:17:58;17.56;77.23
5938;DHT22;2994;51.220;4.412;2023-08-06T08:20:29;17.64;77.47
5938;DHT22;2994;51.220;4.412;2023-08-06T08:23:01;17.74;77.37
5938;DHT22;2994;51.220;4.412;2023-08-06T08:25:29;17.83;77.22
5938;DHT22;2994;51.220;4.412;2023-08-06T08:27:57;17.79;77.45
5938;DHT22;2994;51.220;4.412;2023-08-06T08:30:23;17.81;77.15
5938;DHT22;2994;51.220;4.412;2023-08-06T08:32:50;17.65;77.80
5938;DHT22;2994;51.220;4.412;2023-08-06T08:35:16;17.66;78.00
5938;DHT22;2994;51.220;4.412;2023-08-06T08:37:42;17.69;77.31
5938;DHT22;2994;51.220;4.412;2023-08-06T08:40:09;17.67;77.42
5938;DHT22;2994;51.220;4.412;2023-08-06T08:45:20;17.75;77.25
5938;DHT22;2994;51.220;4.412;2023-08-06T08:47:50;17.68;76.93
5938;DHT22;2994;51.220;4.412;2023-08-06T08:50:17;17.60;77.26
5938;DHT22;2994;51.220;4.412;2023-08-06T08:52:44;17.69;77.24
5938;DHT22;2994;51.220;4.412;2023-08-06T08:55:12;17.58;77.50
5938;DHT22;2994;51.220;4.412;2023-08-06T08:57:39;17.77;77.30
5938;DHT22;2994;51.220;4.412;2023-08-06T09:00:10;17.88;76.79
5938;DHT22;2994;51.220;4.412;2023-08-06T09:02:37;17.96;76.88
5938;DHT22;2994;51.220;4.412;2023-08-06T09:05:05;17.89;77.50
5938;DHT22;2994;51.220;4.412;2023-08-06T09:07:42;17.85;77.24
5938;DHT22;2994;51.220;4.412;2023-08-06T09:10:11;17.78;76.62
5938;DHT22;2994;51.220;4.412;2023-08-06T09:12:39;17.72;77.06
5938;DHT22;2994;51.220;4.412;2023-08-06T09:15:05;17.69;77.46
5938;DHT22;2994;51.220;4.412;2023-08-06T09:17:31;17.66;77.89
5938;DHT22;2994;51.220;4.412;2023-08-06T09:22:35;17.51;78.58
5938;DHT22;2994;51.220;4.412;2023-08-06T09:25:04;17.36;78.43
5938;DHT22;2994;51.220;4.412;2023-08-06T09:27:37;17.31;79.11
5938;DHT22;2994;51.220;4.412;2023-08-06T09:30:05;17.20;79.58
5938;DHT22;2994;51.220;4.412;2023-08-06T09:32:48;17.20;80.21
5938;DHT22;2994;51.220;4.412;2023-08-06T09:35:17;16.92;80.64
5938;DHT22;2994;51.220;4.412;2023-08-06T09:37:43;16.90;80.74
5938;DHT22;2994;51.220;4.412;2023-08-06T09:40:25;16.90;81.27
5938;DHT22;2994;51.220;4.412;2023-08-06T09:42:52;16.88;81.50
5938;DHT22;2994;51.220;4.412;2023-08-06T09:45:17;16.78;82.50
5938;DHT22;2994;51.220;4.412;2023-08-06T09:47:43;16.91;82.97
5938;DHT22;2994;51.220;4.412;2023-08-06T09:50:18;16.60;84.18
5938;DHT22;2994;51.220;4.412;2023-08-06T09:52:45;16.56;84.13
5938;DHT22;2994;51.220;4.412;2023-08-06T09:55:14;16.50;85.03
5938;DHT22;2994;51.220;4.412;2023-08-06T09:57:41;16.69;84.14
5938;DHT22;2994;51.220;4.412;2023-08-06T10:00:08;16.56;84.24
5938;DHT22;2994;51.220;4.412;2023-08-06T10:02:37;16.63;84.29
5938;DHT22;2994;51.220;4.412;2023-08-06T10:05:10;16.54;83.30
5938;DHT22;2994;51.220;4.412;2023-08-06T10:07:36;16.69;83.65
5938;DHT22;2994;51.220;4.412;2023-08-06T10:10:05;16.93;82.20
5938;DHT22;2994;51.220;4.412;2023-08-06T10:12:34;16.90;81.14
5938;DHT22;2994;51.220;4.412;2023-08-06T10:15:05;16.98;81.78
5938;DHT22;2994;51.220;4.412;2023-08-06T10:17:35;17.11;81.66
5938;DHT22;2994;51.220;4.412;2023-08-06T10:20:04;16.98;81.36
5938;DHT22;2994;51.220;4.412;2023-08-06T10:22:36;17.01;82.07
5938;DHT22;2994;51.220;4.412;2023-08-06T10:25:06;17.01;82.06
5938;DHT22;2994;51.220;4.412;2023-08-06T10:28:09;17.18;82.30
5938;DHT22;2994;51.220;4.412;2023-08-06T10:30:50;17.19;82.69
5938;DHT22;2994;51.220;4.412;2023-08-06T10:33:28;17.03;81.79
5938;DHT22;2994;51.220;4.412;2023-08-06T10:36:09;17.26;80.08
5938;DHT22;2994;51.220;4.412;2023-08-06T10:38:44;17.14;80.16
5938;DHT22;2994;51.220;4.412;2023-08-06T10:41:27;17.16;80.14
5938;DHT22;2994;51.220;4.412;2023-08-06T10:44:55;17.34;79.76
5938;DHT22;2994;51.220;4.412;2023-08-06T10:47:28;16.81;82.13
5938;DHT22;2994;51.220;4.412;2023-08-06T10:49:54;16.80;82.17
5938;DHT22;2994;51.220;4.412;2023-08-06T10:52:19;16.80;82.09
5938;DHT22;2994;51.220;4.412;2023-08-06T10:54:47;16.51;83.41
5938;DHT22;2994;51.220;4.412;2023-08-06T10:57:13;16.75;82.52
5938;DHT22;2994;51.220;4.412;2023-08-06T10:59:39;17.03;82.07
5938;DHT22;2994;51.220;4.412;2023-08-06T11:02:05;17.10;81.30
5938;DHT22;2994;51.220;4.412;2023-08-06T11:04:32;17.19;80.85
5938;DHT22;2994;51.220;4.412;2023-08-06T11:06:57;17.19;80.31
5938;DHT22;2994;51.220;4.412;2023-08-06T11:09:23;17.31;79.11
5938;DHT22;2994;51.220;4.412;2023-08-06T11:11:48;17.38;79.95
5938;DHT22;2994;51.220;4.412;2023-08-06T11:16:50;17.22;81.10
5938;DHT22;2994;51.220;4.412;2023-08-06T11:19:25;17.19;81.43
5938;DHT22;2994;51.220;4.412;2023-08-06T11:21:51;17.08;81.27
5938;DHT22;2994;51.220;4.412;2023-08-06T11:24:31;17.33;80.60
5938;DHT22;2994;51.220;4.412;2023-08-06T11:26:57;17.22;80.77
5938;DHT22;2994;51.220;4.412;2023-08-06T11:33:25;17.52;79.49
5938;DHT22;2994;51.220;4.412;2023-08-06T11:36:01;17.69;79.41
5938;DHT22;2994;51.220;4.412;2023-08-06T11:38:59;17.51;80.57
5938;DHT22;2994;51.220;4.412;2023-08-06T11:41:25;17.49;80.59
5938;DHT22;2994;51.220;4.412;2023-08-06T11:43:53;17.24;81.21
5938;DHT22;2994;51.220;4.412;2023-08-06T11:46:23;17.23;80.91
5938;DHT22;2994;51.220;4.412;2023-08-06T11:48:54;17.31;80.72
5938;DHT22;2994;51.220;4.412;2023-08-06T11:51:29;17.21;80.44
5938;DHT22;2994;51.220;4.412;2023-08-06T11:54:30;16.89;81.77
5938;DHT22;2994;51.220;4.412;2023-08-06T11:56:58;17.06;81.54
5938;DHT22;2994;51.220;4.412;2023-08-06T11:59:25;16.96;82.05
5938;DHT22;2994;51.220;4.412;2023-08-06T12:01:59;16.95;82.34
5938;DHT22;2994;51.220;4.412;2023-08-06T12:04:27;16.89;82.49
5938;DHT22;2994;51.220;4.412;2023-08-06T12:07:09;17.03;81.93
5938;DHT22;2994;51.220;4.412;2023-08-06T12:09:49;17.06;81.77
5938;DHT22;2994;51.220;4.412;2023-08-06T12:12:18;16.92;81.79
5938;DHT22;2994;51.220;4.412;2023-08-06T12:17:50;17.24;80.94
5938;DHT22;2994;51.220;4.412;2023-08-06T12:20:16;17.10;81.34
5938;DHT22;2994;51.220;4.412;2023-08-06T12:22:42;17.10;81.15
5938;DHT22;2994;51.220;4.412;2023-08-06T12:25:09;17.17;80.83
5938;DHT22;2994;51.220;4.412;2023-08-06T12:27:41;17.32;79.01
5938;DHT22;2994;51.220;4.412;2023-08-06T12:30:19;17.34;79.66
5938;DHT22;2994;51.220;4.412;2023-08-06T12:32:45;17.41;79.95
5938;DHT22;2994;51.220;4.412;2023-08-06T12:35:11;17.33;80.58
5938;DHT22;2994;51.220;4.412;2023-08-06T12:37:39;17.44;79.99
5938;DHT22;2994;51.220;4.412;2023-08-06T12:46:08;16.94;80.75
5938;DHT22;2994;51.220;4.412;2023-08-06T12:48:37;16.82;80.99
5938;DHT22;2994;51.220;4.412;2023-08-06T12:51:03;16.56;83.68
5938;DHT22;2994;51.220;4.412;2023-08-06T12:53:28;16.87;81.80
5938;DHT22;2994;51.220;4.412;2023-08-06T12:55:53;16.82;82.47
5938;DHT22;2994;51.220;4.412;2023-08-06T12:58:19;16.72;82.70
5938;DHT22;2994;51.220;4.412;2023-08-06T13:00:44;16.82;82.31
5938;DHT22;2994;51.220;4.412;2023-08-06T13:03:10;16.91;82.55
5938;DHT22;2994;51.220;4.412;2023-08-06T13:05:35;16.63;82.50
5938;DHT22;2994;51.220;4.412;2023-08-06T13:08:01;16.66;83.48
5938;DHT22;2994;51.220;4.412;2023-08-06T13:10:26;16.87;82.20
5938;DHT22;2994;51.220;4.412;2023-08-06T13:12:54;16.65;83.43
5938;DHT22;2994;51.220;4.412;2023-08-06T13:15:20;16.62;84.00
5938;DHT22;2994;51.220;4.412;2023-08-06T13:17:47;16.61;84.03
5938;DHT22;2994;51.220;4.412;2023-08-06T13:20:12;16.77;83.62
5938;DHT22;2994;51.220;4.412;2023-08-06T13:22:38;16.33;85.54
5938;DHT22;2994;51.220;4.412;2023-08-06T13:25:03;16.61;83.31
5938;DHT22;2994;51.220;4.412;2023-08-06T13:27:31;16.43;84.57
5938;DHT22;2994;51.220;4.412;2023-08-06T13:29:56;16.25;84.49
5938;DHT22;2994;51.220;4.412;2023-08-06T13:32:22;16.20;85.03
5938;DHT22;2994;51.220;4.412;2023-08-06T13:34:47;16.32;84.39
5938;DHT22;2994;51.220;4.412;2023-08-06T13:37:13;16.35;83.69
5938;DHT22;2994;51.220;4.412;2023-08-06T13:39:38;16.04;84.83
5938;DHT22;2994;51.220;4.412;2023-08-06T13:42:04;15.98;85.38
5938;DHT22;2994;51.220;4.412;2023-08-06T13:44:29;15.89;85.75
5938;DHT22;2994;51.220;4.412;2023-08-06T13:46:55;15.93;86.40
5938;DHT22;2994;51.220;4.412;2023-08-06T13:49:20;16.04;86.19
5938;DHT22;2994;51.220;4.412;2023-08-06T13:51:45;16.35;84.60
5938;DHT22;2994;51.220;4.412;2023-08-06T13:54:11;16.18;85.48
5938;DHT22;2994;51.220;4.412;2023-08-06T13:56:36;16.25;85.41
5938;DHT22;2994;51.220;4.412;2023-08-06T13:59:03;16.35;85.80
5938;DHT22;2994;51.220;4.412;2023-08-06T14:01:29;16.44;85.61
5938;DHT22;2994;51.220;4.412;2023-08-06T14:03:57;16.39;85.56
5938;DHT22;2994;51.220;4.412;2023-08-06T14:06:23;16.55;84.97
5938;DHT22;2994;51.220;4.412;2023-08-06T14:08:48;16.46;84.51
5938;DHT22;2994;51.220;4.412;2023-08-06T14:11:14;16.39;85.07
5938;DHT22;2994;51.220;4.412;2023-08-06T14:13:39;16.24;84.97
5938;DHT22;2994;51.220;4.412;2023-08-06T14:16:05;16.36;84.76
5938;DHT22;2994;51.220;4.412;2023-08-06T14:18:30;16.28;84.58
5938;DHT22;2994;51.220;4.412;2023-08-06T14:20:56;16.22;84.68
5938;DHT22;2994;51.220;4.412;2023-08-06T14:23:21;16.19;85.12
5938;DHT22;2994;51.220;4.412;2023-08-06T14:25:47;16.29;84.77
5938;DHT22;2994;51.220;4.412;2023-08-06T14:28:12;16.32;85.38
5938;DHT22;2994;51.220;4.412;2023-08-06T14:30:38;16.45;85.13
5938;DHT22;2994;51.220;4.412;2023-08-06T14:33:21;16.74;83.53
5938;DHT22;2994;51.220;4.412;2023-08-06T14:35:47;16.96;82.71
5938;DHT22;2994;51.220;4.412;2023-08-06T14:38:12;17.13;81.55
5938;DHT22;2994;51.220;4.412;2023-08-06T14:40:38;17.16;81.78
5938;DHT22;2994;51.220;4.412;2023-08-06T14:43:09;17.29;79.88
5938;DHT22;2994;51.220;4.412;2023-08-06T14:45:38;17.21;80.31
5938;DHT22;2994;51.220;4.412;2023-08-06T14:48:04;17.09;79.67
5938;DHT22;2994;51.220;4.412;2023-08-06T15:03:34;17.09;80.85
5938;DHT22;2994;51.220;4.412;2023-08-06T15:06:00;17.21;80.32
5938;DHT22;2994;51.220;4.412;2023-08-06T15:08:25;17.13;80.34
5938;DHT22;2994;51.220;4.412;2023-08-06T15:10:53;17.25;80.35
5938;DHT22;2994;51.220;4.412;2023-08-06T15:13:32;17.16;81.58
5938;DHT22;2994;51.220;4.412;2023-08-06T15:21:21;17.08;82.12
5938;DHT22;2994;51.220;4.412;2023-08-06T15:23:47;16.99;82.20
5938;DHT22;2994;51.220;4.412;2023-08-06T15:26:13;16.96;81.59
5938;DHT22;2994;51.220;4.412;2023-08-06T15:28:41;16.98;80.85
5938;DHT22;2994;51.220;4.412;2023-08-06T15:31:35;17.16;80.57
5938;DHT22;2994;51.220;4.412;2023-08-06T15:33:58;17.16;80.65
5938;DHT22;2994;51.220;4.412;2023-08-06T15:36:24;17.28;80.89
5938;DHT22;2994;51.220;4.412;2023-08-06T15:38:49;17.29;80.37
5938;DHT22;2994;51.220;4.412;2023-08-06T15:41:14;17.45;80.00
5938;DHT22;2994;51.220;4.412;2023-08-06T15:43:41;17.46;79.38
5938;DHT22;2994;51.220;4.412;2023-08-06T15:46:07;17.43;79.14
5938;DHT22;2994;51.220;4.412;2023-08-06T15:48:32;17.18;78.73
5938;DHT22;2994;51.220;4.412;2023-08-06T15:50:58;17.20;78.34
5938;DHT22;2994;51.220;4.412;2023-08-06T15:53:23;17.11;77.01
5938;DHT22;2994;51.220;4.412;2023-08-06T15:55:48;17.87;75.95
5938;DHT22;2994;51.220;4.412;2023-08-06T15:58:14;18.15;73.98
5938;DHT22;2994;51.220;4.412;2023-08-06T16:00:40;18.03;72.59
5938;DHT22;2994;51.220;4.412;2023-08-06T16:03:06;18.40;73.64
5938;DHT22;2994;51.220;4.412;2023-08-06T16:05:31;18.18;69.61
5938;DHT22;2994;51.220;4.412;2023-08-06T16:07:57;18.63;70.42
5938;DHT22;2994;51.220;4.412;2023-08-06T16:10:22;19.25;68.40
5938;DHT22;2994;51.220;4.412;2023-08-06T16:12:48;18.92;71.30
5938;DHT22;2994;51.220;4.412;2023-08-06T16:15:13;19.14;68.42
5938;DHT22;2994;51.220;4.412;2023-08-06T16:17:44;19.17;70.65
5938;DHT22;2994;51.220;4.412;2023-08-06T16:20:13;19.06;69.44
5938;DHT22;2994;51.220;4.412;2023-08-06T16:22:40;19.18;69.26
5938;DHT22;2994;51.220;4.412;2023-08-06T16:25:06;19.16;68.97
5938;DHT22;2994;51.220;4.412;2023-08-06T16:27:35;18.71;69.15
5938;DHT22;2994;51.220;4.412;2023-08-06T16:30:00;18.82;67.92
5938;DHT22;2994;51.220;4.412;2023-08-06T16:32:26;18.88;69.46
5938;DHT22;2994;51.220;4.412;2023-08-06T16:34:54;18.69;67.59
5938;DHT22;2994;51.220;4.412;2023-08-06T16:37:19;18.52;66.34
5938;DHT22;2994;51.220;4.412;2023-08-06T16:39:45;18.48;67.15
5938;DHT22;2994;51.220;4.412;2023-08-06T16:42:11;18.34;67.18
5938;DHT22;2994;51.220;4.412;2023-08-06T16:44:39;18.22;67.54
5938;DHT22;2994;51.220;4.412;2023-08-06T16:47:06;18.29;67.33
5938;DHT22;2994;51.220;4.412;2023-08-06T16:49:31;18.72;66.47